createdAt,value
2019-03-06T00:00:04.365Z,972.8
2019-03-06T00:01:14.327Z,972.86
2019-03-06T00:02:24.256Z,972.87
2019-03-06T00:03:34.198Z,972.86
2019-03-06T00:04:44.138Z,972.81
2019-03-06T00:05:54.174Z,972.86
2019-03-06T00:07:04.101Z,972.85
2019-03-06T00:08:14.027Z,972.83
2019-03-06T00:09:23.955Z,972.82
2019-03-06T00:10:33.897Z,972.8
2019-03-06T00:11:43.948Z,972.82
2019-03-06T00:12:53.889Z,972.85
2019-03-06T00:14:03.574Z,972.81
2019-03-06T00:15:13.506Z,972.86
2019-03-06T00:16:23.241Z,972.87
2019-03-06T00:17:33.323Z,972.84
2019-03-06T00:18:43.274Z,972.87
2019-03-06T00:19:53.217Z,972.86
2019-03-06T00:21:03.355Z,972.84
2019-03-06T00:22:13.568Z,972.88
2019-03-06T00:23:24.209Z,972.85
2019-03-06T00:24:34.628Z,972.83
2019-03-06T00:25:44.788Z,972.77
2019-03-06T00:26:54.892Z,972.79
2019-03-06T00:28:04.826Z,972.79
2019-03-06T00:29:14.874Z,972.79
2019-03-06T00:30:24.817Z,972.81
2019-03-06T00:31:34.757Z,972.86
2019-03-06T00:32:44.694Z,972.86
2019-03-06T00:33:54.643Z,972.84
2019-03-06T00:35:04.373Z,972.88
2019-03-06T00:36:14.314Z,972.87
2019-03-06T00:37:24.857Z,972.83
2019-03-06T00:38:34.798Z,972.78
2019-03-06T00:39:44.478Z,972.8
2019-03-06T00:40:54.514Z,972.79
2019-03-06T00:42:04.457Z,972.78
2019-03-06T00:43:14.384Z,972.76
2019-03-06T00:44:24.362Z,972.76
2019-03-06T00:45:34.297Z,972.76
2019-03-06T00:46:44.091Z,972.75
2019-03-06T00:47:54.026Z,972.73
2019-03-06T00:49:03.966Z,972.74
2019-03-06T00:50:13.953Z,972.74
2019-03-06T00:51:23.895Z,972.75
2019-03-06T00:52:33.934Z,972.77
2019-03-06T00:53:43.873Z,972.75
2019-03-06T00:54:54.045Z,972.75
2019-03-06T00:56:04.295Z,972.73
2019-03-06T00:57:14.605Z,972.73
2019-03-06T00:58:25.123Z,972.7
2019-03-06T00:59:35.523Z,972.73
2019-03-06T01:00:45.643Z,972.75
2019-03-06T01:01:55.576Z,972.73
2019-03-06T01:03:05.512Z,972.74
2019-03-06T01:04:15.261Z,972.72
2019-03-06T01:05:25.212Z,972.68
2019-03-06T01:06:35.341Z,972.67
2019-03-06T01:07:45.275Z,972.67
2019-03-06T01:08:55.201Z,972.66
2019-03-06T01:10:05.234Z,972.69
2019-03-06T01:11:15.165Z,972.67
2019-03-06T01:12:25.118Z,972.66
2019-03-06T01:13:35.045Z,972.64
2019-03-06T01:14:44.984Z,972.64
2019-03-06T01:15:54.968Z,972.63
2019-03-06T01:17:04.907Z,972.57
2019-03-06T01:18:14.843Z,972.59
2019-03-06T01:19:24.779Z,972.6
2019-03-06T01:20:34.718Z,972.58
2019-03-06T01:21:44.508Z,972.55
2019-03-06T01:22:54.434Z,972.57
2019-03-06T01:24:04.363Z,972.56
2019-03-06T01:25:14.308Z,972.56
2019-03-06T01:26:24.247Z,972.56
2019-03-06T01:27:34.180Z,972.58
2019-03-06T01:28:44.146Z,972.6
2019-03-06T01:29:54.441Z,972.6
2019-03-06T01:31:04.723Z,972.57
2019-03-06T01:32:15.046Z,972.53
2019-03-06T01:33:25.542Z,972.55
2019-03-06T01:34:35.649Z,972.53
2019-03-06T01:35:45.577Z,972.56
2019-03-06T01:36:55.274Z,972.57
2019-03-06T01:38:05.211Z,972.58
2019-03-06T01:39:15.248Z,972.53
2019-03-06T01:40:25.191Z,972.51
2019-03-06T01:41:35.119Z,972.51
2019-03-06T01:42:45.055Z,972.48
2019-03-06T01:43:54.987Z,972.47
2019-03-06T01:45:05.019Z,972.48
2019-03-06T01:46:14.959Z,972.48
2019-03-06T01:47:24.902Z,972.48
2019-03-06T01:48:34.845Z,972.45
2019-03-06T01:49:44.576Z,972.39
2019-03-06T01:50:54.603Z,972.39
2019-03-06T01:52:04.537Z,972.34
2019-03-06T01:53:14.479Z,972.33
2019-03-06T01:54:24.421Z,972.28
2019-03-06T01:55:34.361Z,972.28
2019-03-06T01:56:44.407Z,972.22
2019-03-06T01:57:54.328Z,972.24
2019-03-06T01:59:04.013Z,972.22
2019-03-06T02:00:13.953Z,972.26
2019-03-06T02:01:24.160Z,972.23
2019-03-06T02:02:34.529Z,972.23
2019-03-06T02:03:44.930Z,972.2
2019-03-06T02:04:55.296Z,972.22
2019-03-06T02:06:05.661Z,972.2
2019-03-06T02:07:15.574Z,972.2
2019-03-06T02:08:25.563Z,972.25
2019-03-06T02:09:35.494Z,972.22
2019-03-06T02:10:45.424Z,972.26
2019-03-06T02:11:55.353Z,972.26
2019-03-06T02:13:05.285Z,972.24
2019-03-06T02:14:15.313Z,972.25
2019-03-06T02:15:25.249Z,972.27
2019-03-06T02:16:35.223Z,972.31
2019-03-06T02:17:45.179Z,972.32
2019-03-06T02:18:55.111Z,972.34
2019-03-06T02:20:05.140Z,972.34
2019-03-06T02:21:15.082Z,972.35
2019-03-06T02:22:25.016Z,972.35
2019-03-06T02:23:34.963Z,972.37
2019-03-06T02:24:44.901Z,972.39
2019-03-06T02:25:54.886Z,972.37
2019-03-06T02:27:04.822Z,972.37
2019-03-06T02:28:14.768Z,972.32
2019-03-06T02:29:24.709Z,972.32
2019-03-06T02:30:34.675Z,972.31
2019-03-06T02:31:44.755Z,972.3
2019-03-06T02:32:54.776Z,972.33
2019-03-06T02:34:04.727Z,972.32
2019-03-06T02:35:14.752Z,972.34
2019-03-06T02:36:24.812Z,972.35
2019-03-06T02:37:35.360Z,972.38
2019-03-06T02:38:46.054Z,972.34
2019-03-06T02:39:56.630Z,972.36
2019-03-06T02:41:07.018Z,972.37
2019-03-06T02:42:17.335Z,972.37
2019-03-06T02:43:27.464Z,972.37
2019-03-06T02:44:39.939Z,972.33
2019-03-06T02:45:50.161Z,972.41
2019-03-06T02:47:00.121Z,972.39
2019-03-06T02:48:10.155Z,972.39
2019-03-06T02:49:20.204Z,972.4
2019-03-06T02:50:29.948Z,972.38
2019-03-06T02:51:39.893Z,972.39
2019-03-06T02:52:49.684Z,972.36
2019-03-06T02:53:59.641Z,972.39
2019-03-06T02:55:09.635Z,972.38
2019-03-06T02:56:19.586Z,972.4
2019-03-06T02:57:29.530Z,972.41
2019-03-06T02:58:39.486Z,972.44
2019-03-06T02:59:49.618Z,972.37
2019-03-06T03:00:59.414Z,972.43
2019-03-06T03:02:09.357Z,972.37
2019-03-06T03:03:19.318Z,972.39
2019-03-06T03:04:29.268Z,972.35
2019-03-06T03:05:39.219Z,972.32
2019-03-06T03:06:49.218Z,972.33
2019-03-06T03:07:58.937Z,972.34
2019-03-06T03:09:08.871Z,972.3
2019-03-06T03:10:18.811Z,972.37
2019-03-06T03:11:28.757Z,972.34
2019-03-06T03:12:39.061Z,972.3
2019-03-06T03:13:50.760Z,972.29
2019-03-06T03:15:01.159Z,972.26
2019-03-06T03:16:11.689Z,972.32
2019-03-06T03:17:22.004Z,972.26
2019-03-06T03:18:32.270Z,972.22
2019-03-06T03:19:42.203Z,972.26
2019-03-06T03:20:52.171Z,972.35
2019-03-06T03:22:02.128Z,972.33
2019-03-06T03:23:12.076Z,972.28
2019-03-06T03:24:22.093Z,972.26
2019-03-06T03:25:32.046Z,972.23
2019-03-06T03:26:41.997Z,972.19
2019-03-06T03:27:51.938Z,972.21
2019-03-06T03:29:01.719Z,972.24
2019-03-06T03:30:11.704Z,972.21
2019-03-06T03:31:21.709Z,972.24
2019-03-06T03:32:31.764Z,972.26
2019-03-06T03:33:41.818Z,972.24
2019-03-06T03:34:51.807Z,972.35
2019-03-06T03:36:01.802Z,972.25
2019-03-06T03:37:11.790Z,972.23
2019-03-06T03:38:21.734Z,972.25
2019-03-06T03:39:31.717Z,972.19
2019-03-06T03:40:41.695Z,972.27
2019-03-06T03:41:51.748Z,972.24
2019-03-06T03:43:01.695Z,972.27
2019-03-06T03:44:11.642Z,972.27
2019-03-06T03:45:21.326Z,972.29
2019-03-06T03:46:31.264Z,972.26
2019-03-06T03:47:41.369Z,972.21
2019-03-06T03:48:51.330Z,972.2
2019-03-06T03:50:01.010Z,972.22
2019-03-06T03:51:11.242Z,972.19
2019-03-06T03:52:21.581Z,972.28
2019-03-06T03:53:32.278Z,972.24
2019-03-06T03:54:42.737Z,972.24
2019-03-06T03:55:53.147Z,972.27
2019-03-06T03:57:03.091Z,972.26
2019-03-06T03:58:13.207Z,972.23
2019-03-06T03:59:23.250Z,972.24
2019-03-06T04:00:33.205Z,972.19
2019-03-06T04:01:43.157Z,972.21
2019-03-06T04:02:53.122Z,972.21
2019-03-06T04:04:03.110Z,972.17
2019-03-06T04:05:13.113Z,972.16
2019-03-06T04:06:23.085Z,972.18
2019-03-06T04:07:33.063Z,972.21
2019-03-06T04:08:42.752Z,972.22
2019-03-06T04:09:52.712Z,972.21
2019-03-06T04:11:02.767Z,972.24
2019-03-06T04:12:12.539Z,972.23
2019-03-06T04:13:22.468Z,972.21
2019-03-06T04:14:32.412Z,972.29
2019-03-06T04:15:42.364Z,972.31
2019-03-06T04:16:52.445Z,972.31
2019-03-06T04:18:02.394Z,972.34
2019-03-06T04:19:12.415Z,972.3
2019-03-06T04:20:22.361Z,972.27
2019-03-06T04:21:32.053Z,972.28
2019-03-06T04:22:42.208Z,972.31
2019-03-06T04:23:52.176Z,972.32
2019-03-06T04:25:02.117Z,972.36
2019-03-06T04:26:12.065Z,972.34
2019-03-06T04:27:22.011Z,972.37
2019-03-06T04:28:32.206Z,972.36
2019-03-06T04:29:42.232Z,972.29
2019-03-06T04:30:52.476Z,972.28
2019-03-06T04:32:02.808Z,972.31
2019-03-06T04:33:13.276Z,972.27
2019-03-06T04:34:23.777Z,972.26
2019-03-06T04:35:34.137Z,972.25
2019-03-06T04:36:44.281Z,972.22
2019-03-06T04:37:54.224Z,972.23
2019-03-06T04:39:04.181Z,972.2
2019-03-06T04:40:14.175Z,972.21
2019-03-06T04:41:24.113Z,972.17
2019-03-06T04:42:34.043Z,972.2
2019-03-06T04:43:43.985Z,972.22
2019-03-06T04:44:55.382Z,972.22
2019-03-06T04:46:05.509Z,972.26
2019-03-06T04:47:15.430Z,972.25
2019-03-06T04:48:25.366Z,972.27
2019-03-06T04:49:35.293Z,972.27
2019-03-06T04:50:52.995Z,972.25
2019-03-06T04:52:03.080Z,972.3
2019-03-06T04:53:13.016Z,972.31
2019-03-06T04:54:22.950Z,972.28
2019-03-06T04:55:32.943Z,972.28
2019-03-06T04:56:42.876Z,972.32
2019-03-06T04:57:52.651Z,972.3
2019-03-06T04:59:02.594Z,972.25
2019-03-06T05:00:12.531Z,972.27
2019-03-06T05:01:22.745Z,972.29
2019-03-06T05:02:33.112Z,972.28
2019-03-06T05:03:43.613Z,972.24
2019-03-06T05:04:53.943Z,972.26
2019-03-06T05:06:04.271Z,972.28
2019-03-06T05:07:14.372Z,972.27
2019-03-06T05:08:24.348Z,972.23
2019-03-06T05:09:34.352Z,972.23
2019-03-06T05:10:44.289Z,972.25
2019-03-06T05:11:54.232Z,972.29
2019-03-06T05:13:03.927Z,972.25
2019-03-06T05:14:13.875Z,972.26
2019-03-06T05:15:23.811Z,972.29
2019-03-06T05:16:33.742Z,972.27
2019-03-06T05:17:43.424Z,972.3
2019-03-06T05:18:53.367Z,972.3
2019-03-06T05:20:03.296Z,972.27
2019-03-06T05:21:13.283Z,972.31
2019-03-06T05:22:23.221Z,972.35
2019-03-06T05:23:33.161Z,972.37
2019-03-06T05:24:43.100Z,972.39
2019-03-06T05:25:53.036Z,972.4
2019-03-06T05:27:03.034Z,972.43
2019-03-06T05:28:12.976Z,972.44
2019-03-06T05:29:22.907Z,972.37
2019-03-06T05:30:32.859Z,972.42
2019-03-06T05:31:42.798Z,972.38
2019-03-06T05:32:52.837Z,972.41
2019-03-06T05:34:02.763Z,972.4
2019-03-06T05:35:12.702Z,972.42
2019-03-06T05:36:22.672Z,972.42
2019-03-06T05:37:32.909Z,972.44
2019-03-06T05:38:43.221Z,972.43
2019-03-06T05:39:53.619Z,972.42
2019-03-06T05:41:03.971Z,972.38
2019-03-06T05:42:14.117Z,972.36
2019-03-06T05:43:24.062Z,972.39
2019-03-06T05:44:34.145Z,972.4
2019-03-06T05:45:44.070Z,972.41
2019-03-06T05:46:54.006Z,972.37
2019-03-06T05:48:03.944Z,972.41
2019-03-06T05:49:13.644Z,972.38
2019-03-06T05:50:23.635Z,972.41
2019-03-06T05:51:33.594Z,972.42
2019-03-06T05:52:43.559Z,972.41
2019-03-06T05:53:53.242Z,972.37
2019-03-06T05:55:03.183Z,972.43
2019-03-06T05:56:13.226Z,972.4
2019-03-06T05:57:23.166Z,972.4
2019-03-06T05:58:33.119Z,972.4
2019-03-06T05:59:43.046Z,972.43
2019-03-06T06:00:52.984Z,972.41
2019-03-06T06:02:03.017Z,972.33
2019-03-06T06:03:12.950Z,972.32
2019-03-06T06:04:22.898Z,972.34
2019-03-06T06:05:32.832Z,972.34
2019-03-06T06:06:42.794Z,972.33
2019-03-06T06:07:52.884Z,972.27
2019-03-06T06:09:02.827Z,972.24
2019-03-06T06:10:13.011Z,972.28
2019-03-06T06:11:23.404Z,972.3
2019-03-06T06:12:33.696Z,972.33
2019-03-06T06:13:44.201Z,972.36
2019-03-06T06:14:54.505Z,972.34
2019-03-06T06:16:04.638Z,972.36
2019-03-06T06:17:14.650Z,972.37
2019-03-06T06:18:24.590Z,972.38
2019-03-06T06:19:34.585Z,972.35
2019-03-06T06:20:44.514Z,972.37
2019-03-06T06:21:54.453Z,972.36
2019-03-06T06:23:04.388Z,972.35
2019-03-06T06:24:14.334Z,972.33
2019-03-06T06:25:24.420Z,972.34
2019-03-06T06:26:34.367Z,972.34
2019-03-06T06:27:44.310Z,972.34
2019-03-06T06:28:54.240Z,972.35
2019-03-06T06:30:04.207Z,972.37
2019-03-06T06:31:14.236Z,972.35
2019-03-06T06:32:24.165Z,972.36
2019-03-06T06:33:35.824Z,972.38
2019-03-06T06:34:45.763Z,972.37
2019-03-06T06:35:55.699Z,972.34
2019-03-06T06:37:05.191Z,972.33
2019-03-06T06:38:15.134Z,972.35
2019-03-06T06:39:25.069Z,972.26
2019-03-06T06:40:35.739Z,972.3
2019-03-06T06:41:45.830Z,972.29
2019-03-06T06:42:56.119Z,972.35
2019-03-06T06:44:06.542Z,972.36
2019-03-06T06:45:16.866Z,972.35
2019-03-06T06:46:27.026Z,972.28
2019-03-06T06:47:37.672Z,972.25
2019-03-06T06:48:47.598Z,972.28
2019-03-06T06:49:57.539Z,972.3
2019-03-06T06:51:07.467Z,972.28
2019-03-06T06:52:17.403Z,972.31
2019-03-06T06:53:27.341Z,972.31
2019-03-06T06:54:37.433Z,972.34
2019-03-06T06:55:47.363Z,972.33
2019-03-06T06:56:57.307Z,972.37
2019-03-06T06:58:07.551Z,972.37
2019-03-06T06:59:17.520Z,972.4
2019-03-06T07:00:27.549Z,972.41
2019-03-06T07:01:37.488Z,972.38
2019-03-06T07:02:47.425Z,972.4
2019-03-06T07:03:57.364Z,972.42
2019-03-06T07:05:07.314Z,972.39
2019-03-06T07:06:17.309Z,972.4
2019-03-06T07:07:27.243Z,972.47
2019-03-06T07:08:36.925Z,972.38
2019-03-06T07:09:46.857Z,972.36
2019-03-06T07:10:56.799Z,972.34
2019-03-06T07:12:06.783Z,972.33
2019-03-06T07:13:17.081Z,972.29
2019-03-06T07:14:27.759Z,972.23
2019-03-06T07:15:38.256Z,972.25
2019-03-06T07:16:48.635Z,972.27
2019-03-06T07:18:00.539Z,972.28
2019-03-06T07:19:10.465Z,972.28
2019-03-06T07:20:20.417Z,972.29
2019-03-06T07:21:30.357Z,972.29
2019-03-06T07:22:40.285Z,972.29
2019-03-06T07:23:50.283Z,972.37
2019-03-06T07:25:00.313Z,972.28
2019-03-06T07:26:10.250Z,972.33
2019-03-06T07:27:20.185Z,972.34
2019-03-06T07:28:30.120Z,972.41
2019-03-06T07:29:40.170Z,972.37
2019-03-06T07:30:50.102Z,972.42
2019-03-06T07:32:00.026Z,972.44
2019-03-06T07:33:09.962Z,972.44
2019-03-06T07:34:19.889Z,972.47
2019-03-06T07:35:30.673Z,972.47
2019-03-06T07:36:40.602Z,972.41
2019-03-06T07:37:50.540Z,972.42
2019-03-06T07:39:00.483Z,972.45
2019-03-06T07:40:10.416Z,972.45
2019-03-06T07:41:20.457Z,972.44
2019-03-06T07:42:30.703Z,972.44
2019-03-06T07:43:41.009Z,972.44
2019-03-06T07:44:51.500Z,972.42
2019-03-06T07:46:01.797Z,972.41
2019-03-06T07:47:13.584Z,972.44
2019-03-06T07:48:23.303Z,972.44
2019-03-06T07:49:33.234Z,972.45
2019-03-06T07:50:52.647Z,972.47
2019-03-06T07:52:02.583Z,972.45
2019-03-06T07:53:12.903Z,972.49
2019-03-06T07:54:22.839Z,972.48
2019-03-06T07:55:32.776Z,972.49
2019-03-06T07:56:42.711Z,972.5
2019-03-06T07:57:52.646Z,972.49
2019-03-06T07:59:02.733Z,972.47
2019-03-06T08:00:12.692Z,972.42
2019-03-06T08:01:22.641Z,972.43
2019-03-06T08:02:32.584Z,972.48
2019-03-06T08:03:42.537Z,972.44
2019-03-06T08:04:52.473Z,972.45
2019-03-06T08:06:02.185Z,972.46
2019-03-06T08:07:12.453Z,972.46
2019-03-06T08:08:22.896Z,972.47
2019-03-06T08:09:33.284Z,972.46
2019-03-06T08:10:43.727Z,972.5
2019-03-06T08:11:53.922Z,972.5
2019-03-06T08:13:03.875Z,972.5
2019-03-06T08:14:21.976Z,972.47
2019-03-06T08:15:32.306Z,972.5
2019-03-06T08:16:42.095Z,972.49
2019-03-06T08:17:52.040Z,972.51
2019-03-06T08:19:01.734Z,972.5
2019-03-06T08:20:11.679Z,972.5
2019-03-06T08:21:21.624Z,972.53
2019-03-06T08:22:31.623Z,972.54
2019-03-06T08:23:41.577Z,972.59
2019-03-06T08:24:51.512Z,972.56
2019-03-06T08:26:01.468Z,972.57
2019-03-06T08:27:11.413Z,972.63
2019-03-06T08:28:21.541Z,972.6
2019-03-06T08:29:31.489Z,972.67
2019-03-06T08:30:43.185Z,972.68
2019-03-06T08:31:53.312Z,972.68
2019-03-06T08:33:03.519Z,972.69
2019-03-06T08:34:23.193Z,972.73
2019-03-06T08:35:33.129Z,972.75
2019-03-06T08:36:43.070Z,972.73
2019-03-06T08:37:53.012Z,972.76
2019-03-06T08:39:03.112Z,972.8
2019-03-06T08:40:13.058Z,972.73
2019-03-06T08:41:23.057Z,972.7
2019-03-06T08:42:33.019Z,972.72
2019-03-06T08:43:42.973Z,972.74
2019-03-06T08:44:52.416Z,972.71
2019-03-06T08:46:02.351Z,972.72
2019-03-06T08:47:12.292Z,972.71
2019-03-06T08:48:22.235Z,972.69
2019-03-06T08:49:32.175Z,972.69
2019-03-06T08:50:42.216Z,972.66
2019-03-06T08:51:52.157Z,972.68
2019-03-06T08:53:02.099Z,972.64
2019-03-06T08:54:12.058Z,972.64
2019-03-06T08:55:22.022Z,972.56
2019-03-06T08:56:32.057Z,972.52
2019-03-06T08:57:41.996Z,972.54
2019-03-06T08:58:51.944Z,972.56
2019-03-06T09:00:01.901Z,972.52
2019-03-06T09:01:11.916Z,972.54
2019-03-06T09:02:22.096Z,972.56
2019-03-06T09:03:32.343Z,972.54
2019-03-06T09:04:42.890Z,972.57
2019-03-06T09:05:53.283Z,972.62
2019-03-06T09:07:03.432Z,972.58
2019-03-06T09:08:13.372Z,972.6
2019-03-06T09:09:23.304Z,972.61
2019-03-06T09:10:33.276Z,972.63
2019-03-06T09:11:43.221Z,972.59
2019-03-06T09:12:53.165Z,972.67
2019-03-06T09:14:03.254Z,972.58
2019-03-06T09:15:13.201Z,972.61
2019-03-06T09:16:24.321Z,972.66
2019-03-06T09:17:34.266Z,972.65
2019-03-06T09:18:44.200Z,972.68
2019-03-06T09:19:54.293Z,972.66
2019-03-06T09:21:04.244Z,972.64
2019-03-06T09:22:14.192Z,972.66
2019-03-06T09:23:24.172Z,972.65
2019-03-06T09:24:34.116Z,972.64
2019-03-06T09:25:44.208Z,972.63
2019-03-06T09:26:54.145Z,972.65
2019-03-06T09:28:04.650Z,972.64
2019-03-06T09:29:14.585Z,972.67
2019-03-06T09:30:24.547Z,972.6
2019-03-06T09:31:34.825Z,972.62
2019-03-06T09:32:45.204Z,972.67
2019-03-06T09:33:55.627Z,972.61
2019-03-06T09:35:06.118Z,972.61
2019-03-06T09:36:16.465Z,972.69
2019-03-06T09:37:26.724Z,972.74
2019-03-06T09:38:36.667Z,972.71
2019-03-06T09:39:46.621Z,972.67
2019-03-06T09:40:56.566Z,972.68
2019-03-06T09:42:06.511Z,972.69
2019-03-06T09:43:16.450Z,972.71
2019-03-06T09:44:26.395Z,972.68
2019-03-06T09:45:36.376Z,972.69
2019-03-06T09:46:46.322Z,972.76
2019-03-06T09:47:56.256Z,972.73
2019-03-06T09:49:11.406Z,972.78
2019-03-06T09:50:21.718Z,972.77
2019-03-06T09:51:31.663Z,972.79
2019-03-06T09:52:41.603Z,972.74
2019-03-06T09:53:51.552Z,972.72
2019-03-06T09:55:01.338Z,972.71
2019-03-06T09:56:11.279Z,972.75
2019-03-06T09:57:21.224Z,972.77
2019-03-06T09:58:31.159Z,972.77
2019-03-06T09:59:41.101Z,972.76
2019-03-06T10:00:51.190Z,972.68
2019-03-06T10:02:06.640Z,972.64
2019-03-06T10:03:17.392Z,972.59
2019-03-06T10:04:27.838Z,972.56
2019-03-06T10:05:37.768Z,972.51
2019-03-06T10:06:47.867Z,972.51
2019-03-06T10:07:57.803Z,972.48
2019-03-06T10:09:07.745Z,972.45
2019-03-06T10:10:17.691Z,972.5
2019-03-06T10:11:27.640Z,972.51
2019-03-06T10:12:47.076Z,972.5
2019-03-06T10:13:57.212Z,972.56
2019-03-06T10:15:07.164Z,972.58
2019-03-06T10:16:17.116Z,972.56
2019-03-06T10:17:30.110Z,972.54
2019-03-06T10:18:40.261Z,972.52
2019-03-06T10:19:50.221Z,972.5
2019-03-06T10:21:00.190Z,972.51
2019-03-06T10:22:10.148Z,972.59
2019-03-06T10:23:20.211Z,972.56
2019-03-06T10:24:29.946Z,972.57
2019-03-06T10:25:39.938Z,972.54
2019-03-06T10:26:49.946Z,972.52
2019-03-06T10:28:06.141Z,972.53
2019-03-06T10:29:16.352Z,972.54
2019-03-06T10:30:26.387Z,972.54
2019-03-06T10:31:38.480Z,972.51
2019-03-06T10:32:48.616Z,972.47
2019-03-06T10:33:58.650Z,972.47
2019-03-06T10:35:08.678Z,972.5
2019-03-06T10:36:18.995Z,972.52
2019-03-06T10:37:29.041Z,972.6
2019-03-06T10:38:39.101Z,972.57
2019-03-06T10:39:50.096Z,972.59
2019-03-06T10:41:00.159Z,972.59
2019-03-06T10:42:10.220Z,972.58
2019-03-06T10:43:20.744Z,972.55
2019-03-06T10:44:31.452Z,972.54
2019-03-06T10:45:42.107Z,972.5
2019-03-06T10:46:52.265Z,972.51
2019-03-06T10:48:02.986Z,972.48
2019-03-06T10:49:13.013Z,972.37
2019-03-06T10:50:26.465Z,972.42
2019-03-06T10:51:41.089Z,972.38
2019-03-06T10:52:51.260Z,972.4
2019-03-06T10:54:01.333Z,972.48
2019-03-06T10:55:11.402Z,972.5
2019-03-06T10:56:21.672Z,972.46
2019-03-06T10:57:31.502Z,972.48
2019-03-06T10:58:41.464Z,972.45
2019-03-06T10:59:52.495Z,972.42
2019-03-06T11:01:02.333Z,972.46
2019-03-06T11:02:12.379Z,972.44
2019-03-06T11:03:22.632Z,972.44
2019-03-06T11:04:32.646Z,972.47
2019-03-06T11:05:42.674Z,972.47
2019-03-06T11:06:52.686Z,972.55
2019-03-06T11:08:03.637Z,972.6
2019-03-06T11:09:13.731Z,972.54
2019-03-06T11:10:24.514Z,972.58
2019-03-06T11:11:37.174Z,972.61
2019-03-06T11:12:47.201Z,972.63
2019-03-06T11:14:05.747Z,972.64
2019-03-06T11:15:16.151Z,972.65
2019-03-06T11:16:27.080Z,972.69
2019-03-06T11:17:45.473Z,972.69
2019-03-06T11:18:57.032Z,972.72
2019-03-06T11:20:07.299Z,972.72
2019-03-06T11:21:17.295Z,972.74
2019-03-06T11:22:27.262Z,972.82
2019-03-06T11:23:37.228Z,972.75
2019-03-06T11:24:47.199Z,972.74
2019-03-06T11:25:57.197Z,972.75
2019-03-06T11:27:07.456Z,972.82
2019-03-06T11:28:17.528Z,972.8
2019-03-06T11:29:27.564Z,972.73
2019-03-06T11:30:37.578Z,972.73
2019-03-06T11:31:47.574Z,972.78
2019-03-06T11:32:57.584Z,972.78
2019-03-06T11:34:07.585Z,972.73
2019-03-06T11:35:17.586Z,972.68
2019-03-06T11:36:27.564Z,972.72
2019-03-06T11:37:37.558Z,972.8
2019-03-06T11:38:47.610Z,972.82
2019-03-06T11:39:57.349Z,972.79
2019-03-06T11:41:07.338Z,972.75
2019-03-06T11:42:17.329Z,972.7
2019-03-06T11:43:27.320Z,972.71
2019-03-06T11:44:37.336Z,972.72
2019-03-06T11:45:47.315Z,972.71
2019-03-06T11:46:57.384Z,972.66
2019-03-06T11:48:07.638Z,972.66
2019-03-06T11:49:17.891Z,972.58
2019-03-06T11:50:28.303Z,972.56
2019-03-06T11:51:46.054Z,972.58
2019-03-06T11:52:56.053Z,972.57
2019-03-06T11:54:06.023Z,972.54
2019-03-06T11:55:16.277Z,972.49
2019-03-06T11:56:26.349Z,972.5
2019-03-06T11:57:36.528Z,972.48
2019-03-06T11:58:46.616Z,972.51
2019-03-06T11:59:56.706Z,972.53
2019-03-06T12:01:06.774Z,972.6
2019-03-06T12:02:16.950Z,972.62
2019-03-06T12:03:26.998Z,972.68
2019-03-06T12:04:37.002Z,972.69
2019-03-06T12:05:47.000Z,972.64
2019-03-06T12:06:57.013Z,972.56
2019-03-06T12:08:07.133Z,972.54
2019-03-06T12:09:17.232Z,972.49
2019-03-06T12:10:27.231Z,972.47
2019-03-06T12:11:39.079Z,972.41
2019-03-06T12:12:49.100Z,972.38
2019-03-06T12:13:59.188Z,972.38
2019-03-06T12:15:09.184Z,972.41
2019-03-06T12:16:19.176Z,972.4
2019-03-06T12:17:29.183Z,972.4
2019-03-06T12:18:39.208Z,972.41
2019-03-06T12:19:49.330Z,972.44
2019-03-06T12:21:08.231Z,972.46
2019-03-06T12:22:18.239Z,972.44
2019-03-06T12:23:28.298Z,972.45
2019-03-06T12:24:38.316Z,972.43
2019-03-06T12:25:48.415Z,972.44
2019-03-06T12:26:58.159Z,972.46
2019-03-06T12:28:08.158Z,972.46
2019-03-06T12:29:18.162Z,972.47
2019-03-06T12:30:28.379Z,972.47
2019-03-06T12:31:38.454Z,972.5
2019-03-06T12:32:48.415Z,972.49
2019-03-06T12:33:58.377Z,972.5
2019-03-06T12:35:08.339Z,972.49
2019-03-06T12:36:18.063Z,972.49
2019-03-06T12:37:28.061Z,972.46
2019-03-06T12:38:47.384Z,972.42
2019-03-06T12:39:57.735Z,972.41
2019-03-06T12:41:17.274Z,972.41
2019-03-06T12:42:27.229Z,972.36
2019-03-06T12:43:37.242Z,972.31
2019-03-06T12:44:47.630Z,972.23
2019-03-06T12:45:57.604Z,972.21
2019-03-06T12:47:07.575Z,972.21
2019-03-06T12:48:18.697Z,972.23
2019-03-06T12:49:28.650Z,972.19
2019-03-06T12:50:38.617Z,972.19
2019-03-06T12:51:57.953Z,972.17
2019-03-06T12:53:07.690Z,972.19
2019-03-06T12:54:18.392Z,972.17
2019-03-06T12:55:28.349Z,972.16
2019-03-06T12:56:38.306Z,972.14
2019-03-06T12:57:48.271Z,972.14
2019-03-06T12:59:07.257Z,972.07
2019-03-06T13:00:17.577Z,972.09
2019-03-06T13:01:28.254Z,972.1
2019-03-06T13:02:39.709Z,972.03
2019-03-06T13:03:50.202Z,972.06
2019-03-06T13:05:00.633Z,971.95
2019-03-06T13:06:10.534Z,971.94
2019-03-06T13:07:29.651Z,971.92
2019-03-06T13:08:49.554Z,971.95
2019-03-06T13:10:01.711Z,971.91
2019-03-06T13:11:11.790Z,971.96
2019-03-06T13:12:21.790Z,971.94
2019-03-06T13:13:35.607Z,971.89
2019-03-06T13:14:45.831Z,971.89
2019-03-06T13:15:55.827Z,971.89
2019-03-06T13:17:05.659Z,971.89
2019-03-06T13:18:15.660Z,971.85
2019-03-06T13:19:25.665Z,971.87
2019-03-06T13:20:35.632Z,971.87
2019-03-06T13:21:45.627Z,971.88
2019-03-06T13:22:55.674Z,971.86
2019-03-06T13:24:06.905Z,971.92
2019-03-06T13:25:16.902Z,971.96
2019-03-06T13:26:26.910Z,971.98
2019-03-06T13:27:36.925Z,971.96
2019-03-06T13:28:57.559Z,971.99
2019-03-06T13:30:08.152Z,972
2019-03-06T13:31:19.137Z,971.99
2019-03-06T13:32:29.795Z,972
2019-03-06T13:33:40.257Z,972.01
2019-03-06T13:34:51.522Z,972
2019-03-06T13:36:02.563Z,971.99
2019-03-06T13:37:12.874Z,971.99
2019-03-06T13:38:22.889Z,972.07
2019-03-06T13:39:32.856Z,972.12
2019-03-06T13:40:42.891Z,972.11
2019-03-06T13:41:52.865Z,972.1
2019-03-06T13:43:02.890Z,972.1
2019-03-06T13:44:12.910Z,972.08
2019-03-06T13:45:24.338Z,972.07
2019-03-06T13:46:34.335Z,972.06
2019-03-06T13:47:44.130Z,972.01
2019-03-06T13:48:56.238Z,971.96
2019-03-06T13:50:06.231Z,971.91
2019-03-06T13:51:16.921Z,971.89
2019-03-06T13:52:27.041Z,971.86
2019-03-06T13:53:37.056Z,971.85
2019-03-06T13:54:47.057Z,971.87
2019-03-06T13:55:57.090Z,971.81
2019-03-06T13:57:07.093Z,971.83
2019-03-06T13:58:17.159Z,971.89
2019-03-06T13:59:27.173Z,971.82
2019-03-06T14:00:37.168Z,971.85
2019-03-06T14:01:47.182Z,971.85
2019-03-06T14:02:57.197Z,971.81
2019-03-06T14:04:07.090Z,971.8
2019-03-06T14:05:17.112Z,971.79
2019-03-06T14:06:27.123Z,971.76
2019-03-06T14:07:37.101Z,971.76
2019-03-06T14:08:56.329Z,971.81
2019-03-06T14:10:06.362Z,971.78
2019-03-06T14:11:16.105Z,971.74
2019-03-06T14:12:26.072Z,971.72
2019-03-06T14:13:36.109Z,971.69
2019-03-06T14:14:46.081Z,971.69
2019-03-06T14:15:56.204Z,971.64
2019-03-06T14:17:06.468Z,971.64
2019-03-06T14:18:16.740Z,971.57
2019-03-06T14:19:27.583Z,971.56
2019-03-06T14:20:38.186Z,971.51
2019-03-06T14:21:48.837Z,971.47
2019-03-06T14:22:59.464Z,971.52
2019-03-06T14:24:09.727Z,971.48
2019-03-06T14:25:19.921Z,971.47
2019-03-06T14:26:30.028Z,971.44
2019-03-06T14:27:40.023Z,971.41
2019-03-06T14:28:50.057Z,971.38
2019-03-06T14:30:00.122Z,971.35
2019-03-06T14:31:10.653Z,971.33
2019-03-06T14:32:20.815Z,971.35
2019-03-06T14:33:30.811Z,971.3
2019-03-06T14:34:40.810Z,971.25
2019-03-06T14:35:50.808Z,971.27
2019-03-06T14:37:00.787Z,971.29
2019-03-06T14:38:10.514Z,971.34
2019-03-06T14:39:20.581Z,971.36